createdAt,value
2022-08-12T00:00:14.866Z,2.92
2022-08-12T00:02:03.865Z,2.80
2022-08-12T00:03:20.779Z,2.67
2022-08-12T00:04:42.325Z,2.83
2022-08-12T00:06:05.046Z,2.78
2022-08-12T00:07:30.129Z,2.80
2022-08-12T00:08:53.477Z,2.88
2022-08-12T00:10:14.429Z,2.40
2022-08-12T00:11:41.443Z,2.70
2022-08-12T00:13:02.408Z,2.53
2022-08-12T00:14:25.784Z,2.97
2022-08-12T00:15:48.293Z,2.80
2022-08-12T00:17:12.028Z,3.30
2022-08-12T00:18:33.336Z,3.20
2022-08-12T00:19:54.374Z,3.10
2022-08-12T00:21:15.583Z,3.20
2022-08-12T00:22:38.163Z,2.67
2022-08-12T00:24:01.123Z,2.97
2022-08-12T00:26:00.365Z,3.55
2022-08-12T00:27:06.161Z,3.20
2022-08-12T00:28:26.966Z,3.10
2022-08-12T00:29:48.371Z,3.47
2022-08-12T00:31:09.922Z,3.22
2022-08-12T00:32:35.021Z,2.97
2022-08-12T00:33:57.284Z,2.83
2022-08-12T00:35:19.795Z,2.90
2022-08-12T00:36:53.912Z,3.17
2022-08-12T00:38:15.256Z,2.88
2022-08-12T00:39:36.410Z,3.25
2022-08-12T00:40:59.021Z,3.13
2022-08-12T00:42:11.604Z,3.10
2022-08-12T00:43:17.375Z,3.00
2022-08-12T00:44:24.489Z,2.90
2022-08-12T00:45:47.809Z,2.90
2022-08-12T00:46:55.906Z,2.83
2022-08-12T00:47:58.164Z,3.00
2022-08-12T00:49:02.106Z,2.90
2022-08-12T00:50:05.570Z,2.72
2022-08-12T00:51:09.653Z,2.63
2022-08-12T00:52:14.046Z,3.00
2022-08-12T00:53:19.227Z,2.70
2022-08-12T00:54:21.547Z,2.78
2022-08-12T00:55:23.743Z,3.17
2022-08-12T00:56:28.673Z,2.78
2022-08-12T00:57:35.870Z,2.60
2022-08-12T00:58:45.666Z,2.85
2022-08-12T00:59:53.009Z,2.80
2022-08-12T01:01:08.576Z,2.78
2022-08-12T01:02:15.470Z,3.10
2022-08-12T01:03:20.234Z,2.63
2022-08-12T01:04:43.965Z,2.85
2022-08-12T01:06:11.184Z,2.63
2022-08-12T01:07:36.722Z,3.00
2022-08-12T01:08:58.932Z,3.05
2022-08-12T01:10:32.715Z,2.83
2022-08-12T01:11:36.467Z,2.80
2022-08-12T01:12:41.726Z,2.85
2022-08-12T01:13:47.690Z,3.00
2022-08-12T01:14:51.282Z,3.03
2022-08-12T01:15:56.051Z,2.78
2022-08-12T01:16:59.799Z,2.78
2022-08-12T01:18:05.552Z,3.00
2022-08-12T01:19:15.239Z,2.95
2022-08-12T01:20:41.297Z,3.00
2022-08-12T01:22:02.588Z,2.80
2022-08-12T01:23:31.886Z,2.90
2022-08-12T01:24:53.329Z,2.95
2022-08-12T01:25:57.634Z,3.20
2022-08-12T01:27:07.952Z,3.17
2022-08-12T01:28:14.510Z,3.10
2022-08-12T01:29:23.273Z,2.80
2022-08-12T01:30:31.263Z,3.10
2022-08-12T01:31:37.001Z,2.90
2022-08-12T01:32:42.483Z,3.10
2022-08-12T01:33:59.823Z,3.00
2022-08-12T01:35:17.582Z,3.20
2022-08-12T01:36:25.857Z,2.80
2022-08-12T01:37:30.698Z,3.20
2022-08-12T01:40:33.931Z,3.05
2022-08-12T01:41:19.374Z,3.20
2022-08-12T01:42:22.474Z,3.35
2022-08-12T01:43:25.791Z,2.90
2022-08-12T01:44:30.935Z,3.10
2022-08-12T01:45:43.137Z,3.10
2022-08-12T01:46:51.990Z,3.20
2022-08-12T01:48:26.131Z,3.33
2022-08-12T01:50:25.129Z,3.10
2022-08-12T01:52:21.217Z,3.00
2022-08-12T01:53:13.510Z,3.00
2022-08-12T01:54:20.449Z,2.92
2022-08-12T01:55:30.996Z,3.13
2022-08-12T01:56:43.948Z,2.97
2022-08-12T01:57:58.359Z,2.80
2022-08-12T01:59:25.995Z,2.67
2022-08-12T02:00:35.961Z,2.72
2022-08-12T02:01:50.349Z,2.85
2022-08-12T02:03:22.896Z,2.90
2022-08-12T02:05:01.679Z,2.70
2022-08-12T02:06:32.308Z,2.70
2022-08-12T02:08:03.027Z,2.55
2022-08-12T02:09:27.584Z,2.65
2022-08-12T02:11:13.900Z,2.80
2022-08-12T02:12:32.623Z,2.80
2022-08-12T02:13:58.448Z,3.00
2022-08-12T02:15:23.708Z,3.10
2022-08-12T02:16:47.835Z,2.80
2022-08-12T02:17:59.862Z,2.88
2022-08-12T02:19:23.071Z,3.05
2022-08-12T02:20:52.651Z,3.13
2022-08-12T02:22:04.914Z,3.00
2022-08-12T02:23:10.403Z,2.65
2022-08-12T02:24:18.728Z,2.97
2022-08-12T02:25:37.017Z,2.63
2022-08-12T02:26:43.240Z,2.75
2022-08-12T02:27:50.630Z,3.05
2022-08-12T02:28:53.448Z,2.88
2022-08-12T02:29:59.253Z,2.72
2022-08-12T02:31:05.417Z,3.00
2022-08-12T02:32:08.661Z,2.95
2022-08-12T02:33:14.489Z,3.17
2022-08-12T02:34:17.830Z,2.80
2022-08-12T02:35:25.976Z,2.95
2022-08-12T02:36:35.282Z,3.00
2022-08-12T02:37:39.943Z,2.65
2022-08-12T02:38:43.953Z,2.90
2022-08-12T02:39:50.039Z,2.90
2022-08-12T02:40:55.075Z,3.20
2022-08-12T02:42:03.005Z,2.80
2022-08-12T02:43:27.649Z,3.00
2022-08-12T02:44:35.907Z,2.78
2022-08-12T02:45:56.788Z,2.72
2022-08-12T02:47:04.235Z,3.10
2022-08-12T02:48:10.624Z,2.95
2022-08-12T02:49:35.602Z,3.08
2022-08-12T02:50:44.945Z,2.88
2022-08-12T02:51:47.752Z,3.20
2022-08-12T02:52:52.426Z,2.80
2022-08-12T02:54:04.342Z,3.15
2022-08-12T02:55:34.255Z,2.83
2022-08-12T02:56:41.924Z,2.95
2022-08-12T02:57:53.470Z,2.97
2022-08-12T02:58:56.380Z,2.83
2022-08-12T03:00:02.644Z,2.78
2022-08-12T03:01:11.794Z,2.78
2022-08-12T03:02:20.247Z,2.88
2022-08-12T03:03:27.281Z,2.95
2022-08-12T03:04:43.490Z,3.10
2022-08-12T03:05:59.390Z,2.60
2022-08-12T03:07:55.880Z,2.58
2022-08-12T03:08:57.443Z,2.60
2022-08-12T03:10:13.032Z,2.70
2022-08-12T03:11:37.716Z,2.60
2022-08-12T03:12:49.476Z,2.63
2022-08-12T03:13:58.113Z,3.20
2022-08-12T03:15:04.974Z,2.83
2022-08-12T03:16:08.656Z,2.72
2022-08-12T03:17:29.068Z,2.97
2022-08-12T03:18:35.234Z,3.03
2022-08-12T03:20:09.977Z,2.80
2022-08-12T03:21:08.913Z,2.90
2022-08-12T03:22:14.673Z,3.20
2022-08-12T03:23:29.723Z,2.70
2022-08-12T03:24:34.041Z,2.92
2022-08-12T03:25:41.391Z,2.60
2022-08-12T03:26:47.384Z,2.53
2022-08-12T03:27:58.305Z,2.88
2022-08-12T03:29:06.701Z,3.17
2022-08-12T03:30:11.119Z,2.58
2022-08-12T03:31:13.416Z,3.08
2022-08-12T03:32:36.099Z,2.80
2022-08-12T03:34:02.220Z,3.00
2022-08-12T03:35:07.941Z,3.03
2022-08-12T03:36:11.504Z,2.87
2022-08-12T03:37:15.590Z,3.22
2022-08-12T03:38:19.821Z,3.22
2022-08-12T03:39:41.521Z,3.00
2022-08-12T03:41:25.560Z,3.08
2022-08-12T03:42:30.887Z,2.97
2022-08-12T03:43:57.400Z,3.10
2022-08-12T03:45:51.636Z,2.90
2022-08-12T03:47:59.532Z,2.80
2022-08-12T03:49:20.785Z,2.93
2022-08-12T03:50:44.087Z,2.90
2022-08-12T03:52:07.823Z,2.93
2022-08-12T03:53:29.510Z,3.03
2022-08-12T03:54:50.339Z,3.07
2022-08-12T03:56:11.865Z,2.97
2022-08-12T03:57:32.583Z,3.00
2022-08-12T03:58:55.654Z,2.87
2022-08-12T04:00:24.047Z,3.40
2022-08-12T04:01:27.158Z,3.30
2022-08-12T04:02:33.982Z,2.80
2022-08-12T04:03:52.826Z,3.07
2022-08-12T04:04:56.293Z,3.20
2022-08-12T04:06:04.668Z,2.90
2022-08-12T04:07:11.903Z,3.10
2022-08-12T04:08:14.771Z,2.93
2022-08-12T04:09:19.845Z,3.17
2022-08-12T04:10:22.267Z,3.20
2022-08-12T04:11:47.200Z,3.10
2022-08-12T04:13:19.195Z,2.93
2022-08-12T04:14:21.539Z,3.33
2022-08-12T04:15:27.967Z,3.40
2022-08-12T04:16:30.296Z,3.30
2022-08-12T04:17:33.435Z,3.37
2022-08-12T04:18:36.247Z,3.65
2022-08-12T04:19:38.681Z,3.50
2022-08-12T04:20:44.388Z,3.27
2022-08-12T04:22:01.893Z,3.60
2022-08-12T04:23:07.483Z,3.20
2022-08-12T04:24:13.165Z,3.50
2022-08-12T04:25:15.553Z,3.60
2022-08-12T04:26:18.451Z,3.80
2022-08-12T04:27:20.733Z,3.28
2022-08-12T04:28:28.057Z,3.50
2022-08-12T04:30:29.231Z,3.40
2022-08-12T04:30:52.493Z,3.20
2022-08-12T04:31:56.102Z,3.60
2022-08-12T04:33:05.838Z,2.90
2022-08-12T04:34:10.565Z,3.28
2022-08-12T04:35:12.751Z,3.70
2022-08-12T04:36:17.665Z,3.40
2022-08-12T04:37:19.983Z,3.30
2022-08-12T04:38:25.441Z,3.20
2022-08-12T04:39:28.262Z,3.20
2022-08-12T04:40:33.035Z,3.25
2022-08-12T04:41:58.464Z,3.05
2022-08-12T04:43:07.209Z,3.30
2022-08-12T04:44:31.919Z,3.35
2022-08-12T04:45:39.200Z,3.10
2022-08-12T04:46:41.859Z,3.13
2022-08-12T04:47:47.649Z,3.13
2022-08-12T04:48:51.411Z,3.88
2022-08-12T04:49:53.640Z,3.55
2022-08-12T04:50:56.102Z,3.50
2022-08-12T04:51:59.744Z,3.33
2022-08-12T04:53:02.617Z,3.67
2022-08-12T04:54:05.394Z,3.70
2022-08-12T04:55:09.324Z,3.88
2022-08-12T04:56:11.925Z,4.00
2022-08-12T04:57:14.333Z,3.88
2022-08-12T04:58:29.947Z,3.70
2022-08-12T04:59:47.888Z,3.60
2022-08-12T05:01:00.275Z,3.45
2022-08-12T05:02:02.684Z,3.90
2022-08-12T05:03:11.765Z,3.78
2022-08-12T05:04:15.698Z,3.33
2022-08-12T05:05:26.775Z,3.78
2022-08-12T05:06:31.549Z,3.53
2022-08-12T05:07:34.263Z,3.75
2022-08-12T05:08:48.690Z,3.67
2022-08-12T05:10:00.204Z,3.22
2022-08-12T05:11:09.151Z,3.83
2022-08-12T05:12:11.448Z,3.33
2022-08-12T05:13:16.774Z,3.65
2022-08-12T05:14:18.976Z,3.53
2022-08-12T05:15:29.236Z,3.45
2022-08-12T05:16:34.105Z,3.72
2022-08-12T05:17:41.063Z,3.70
2022-08-12T05:18:45.959Z,3.30
2022-08-12T05:19:50.098Z,3.58
2022-08-12T05:20:52.377Z,3.50
2022-08-12T05:21:54.568Z,3.47
2022-08-12T05:23:12.934Z,3.40
2022-08-12T05:24:15.800Z,3.30
2022-08-12T05:25:22.265Z,3.17
2022-08-12T05:26:25.143Z,3.40
2022-08-12T05:27:27.350Z,3.42
2022-08-12T05:28:30.485Z,3.45
2022-08-12T05:30:07.423Z,3.20
2022-08-12T05:30:56.367Z,3.75
2022-08-12T05:31:58.673Z,3.50
2022-08-12T05:33:05.724Z,3.78
2022-08-12T05:34:07.939Z,3.53
2022-08-12T05:35:10.610Z,3.88
2022-08-12T05:36:15.060Z,3.55
2022-08-12T05:37:23.635Z,3.90
2022-08-12T05:38:44.598Z,3.90
2022-08-12T05:39:48.500Z,3.60
2022-08-12T05:40:51.257Z,3.72
2022-08-12T05:41:55.983Z,4.03
2022-08-12T05:42:58.276Z,3.90
2022-08-12T05:44:03.131Z,3.80
2022-08-12T05:45:06.904Z,3.50
2022-08-12T05:46:09.087Z,3.50
2022-08-12T05:47:15.265Z,3.45
2022-08-12T05:48:18.274Z,4.00
2022-08-12T05:49:20.479Z,3.33
2022-08-12T05:50:22.752Z,4.18
2022-08-12T05:51:39.588Z,3.88
2022-08-12T05:52:44.150Z,3.55
2022-08-12T05:53:46.622Z,3.35
2022-08-12T05:54:57.622Z,3.30
2022-08-12T05:56:00.296Z,3.13
2022-08-12T05:57:03.528Z,3.38
2022-08-12T05:58:06.136Z,3.13
2022-08-12T05:59:11.440Z,3.58
2022-08-12T06:00:16.456Z,3.60
2022-08-12T06:02:12.011Z,3.40
2022-08-12T06:02:49.139Z,3.30
2022-08-12T06:03:55.505Z,3.20
2022-08-12T06:05:00.455Z,3.22
2022-08-12T06:06:03.565Z,3.60
2022-08-12T06:08:00.102Z,3.50
2022-08-12T06:08:31.450Z,2.92
2022-08-12T06:09:33.674Z,2.85
2022-08-12T06:10:37.319Z,3.10
2022-08-12T06:11:53.619Z,2.90
2022-08-12T06:13:06.510Z,3.08
2022-08-12T06:14:11.929Z,3.55
2022-08-12T06:15:14.807Z,2.97
2022-08-12T06:16:22.078Z,3.03
2022-08-12T06:17:24.324Z,2.70
2022-08-12T06:18:29.719Z,3.22
2022-08-12T06:20:26.973Z,2.60
2022-08-12T06:21:01.858Z,3.10
2022-08-12T06:22:07.101Z,3.22
2022-08-12T06:23:10.793Z,2.80
2022-08-12T06:24:14.180Z,3.08
2022-08-12T06:25:22.073Z,2.90
2022-08-12T06:26:24.539Z,2.88
2022-08-12T06:27:26.723Z,2.90
2022-08-12T06:28:30.650Z,2.78
2022-08-12T06:30:08.552Z,3.20
2022-08-12T06:31:24.690Z,3.17
2022-08-12T06:32:27.549Z,3.08
2022-08-12T06:34:00.473Z,3.10
2022-08-12T06:35:25.937Z,3.38
2022-08-12T06:36:23.819Z,3.40
2022-08-12T06:37:26.223Z,3.00
2022-08-12T06:38:31.438Z,3.15
2022-08-12T06:39:36.540Z,3.33
2022-08-12T06:40:59.092Z,3.63
2022-08-12T06:42:36.674Z,3.22
2022-08-12T06:44:06.306Z,3.20
2022-08-12T06:45:02.196Z,3.15
2022-08-12T06:46:05.192Z,3.10
2022-08-12T06:47:07.508Z,3.33
2022-08-12T06:48:12.556Z,3.80
2022-08-12T06:49:14.794Z,3.28
2022-08-12T06:50:24.261Z,3.80
2022-08-12T06:51:28.813Z,3.72
2022-08-12T06:52:32.393Z,3.25
2022-08-12T06:53:34.904Z,3.70
2022-08-12T06:54:39.793Z,3.17
2022-08-12T06:55:56.752Z,3.60
2022-08-12T06:57:04.660Z,3.17
2022-08-12T06:58:10.780Z,3.10
2022-08-12T06:59:18.569Z,3.30
2022-08-12T07:00:28.525Z,2.97
2022-08-12T07:01:36.017Z,3.53
2022-08-12T07:02:38.339Z,3.20
2022-08-12T07:03:40.663Z,3.20
2022-08-12T07:04:43.513Z,3.42
2022-08-12T07:05:45.891Z,3.25
2022-08-12T07:06:49.504Z,3.38
2022-08-12T07:08:05.099Z,3.20
2022-08-12T07:09:16.391Z,2.95
2022-08-12T07:10:59.245Z,2.72
2022-08-12T07:12:01.574Z,3.17
2022-08-12T07:13:09.515Z,3.30
2022-08-12T07:14:13.495Z,3.10
2022-08-12T07:15:17.937Z,3.28
2022-08-12T07:16:21.639Z,3.40
2022-08-12T07:17:23.838Z,3.10
2022-08-12T07:18:31.489Z,3.30
2022-08-12T07:19:40.381Z,3.10
2022-08-12T07:20:53.296Z,2.95
2022-08-12T07:22:06.460Z,3.20
2022-08-12T07:23:08.922Z,3.00
2022-08-12T07:24:14.740Z,2.88
2022-08-12T07:25:37.864Z,2.97
2022-08-12T07:26:44.874Z,3.13
2022-08-12T07:27:57.289Z,3.20
2022-08-12T07:29:02.716Z,3.33
2022-08-12T07:30:14.617Z,3.03
2022-08-12T07:31:18.445Z,2.92
2022-08-12T07:32:29.584Z,2.90
2022-08-12T07:33:33.067Z,2.92
2022-08-12T07:34:37.512Z,2.90
2022-08-12T07:35:48.272Z,3.17
2022-08-12T07:36:51.350Z,3.17
2022-08-12T07:37:57.275Z,3.28
2022-08-12T07:38:59.618Z,3.03
2022-08-12T07:40:02.290Z,2.65
2022-08-12T07:41:14.487Z,2.90
2022-08-12T07:43:40.278Z,2.80
2022-08-12T07:44:44.011Z,3.00
2022-08-12T07:45:50.369Z,3.03
2022-08-12T07:46:53.213Z,2.90
2022-08-12T07:47:55.455Z,3.08
2022-08-12T07:49:01.833Z,3.00
2022-08-12T07:50:09.386Z,2.92
2022-08-12T07:51:24.750Z,2.90
2022-08-12T07:52:30.473Z,3.15
2022-08-12T07:53:33.487Z,2.80
2022-08-12T07:54:57.491Z,2.80
2022-08-12T07:55:59.706Z,2.97
2022-08-12T07:57:01.877Z,3.28
2022-08-12T07:58:04.482Z,3.20
2022-08-12T07:59:08.717Z,2.95
2022-08-12T08:00:11.824Z,2.90
2022-08-12T08:01:17.686Z,2.80
2022-08-12T08:02:19.962Z,2.90
2022-08-12T08:03:30.027Z,3.40
2022-08-12T08:04:53.660Z,3.00
2022-08-12T08:05:57.168Z,2.58
2022-08-12T08:07:04.492Z,2.55
2022-08-12T08:08:18.454Z,2.42
2022-08-12T08:09:25.585Z,2.78
2022-08-12T08:10:31.094Z,2.72
2022-08-12T08:11:51.821Z,2.75
2022-08-12T08:12:54.200Z,3.10
2022-08-12T08:13:56.378Z,3.08
2022-08-12T08:15:01.250Z,3.10
2022-08-12T08:16:05.869Z,2.67
2022-08-12T08:17:10.539Z,2.65
2022-08-12T08:18:26.434Z,2.65
2022-08-12T08:19:31.278Z,2.60
2022-08-12T08:20:38.025Z,2.63
2022-08-12T08:21:40.206Z,2.72
2022-08-12T08:22:43.214Z,2.50
2022-08-12T08:24:05.403Z,2.53
2022-08-12T08:25:34.861Z,2.53
2022-08-12T08:26:30.535Z,2.50
2022-08-12T08:27:45.783Z,2.80
2022-08-12T08:28:48.673Z,2.65
2022-08-12T08:29:51.225Z,2.55
2022-08-12T08:30:54.113Z,2.60
2022-08-12T08:32:00.131Z,2.53
2022-08-12T08:33:02.436Z,3.10
2022-08-12T08:34:33.454Z,2.50
2022-08-12T08:35:47.126Z,2.47
2022-08-12T08:36:52.656Z,2.65
2022-08-12T08:38:10.499Z,2.28
2022-08-12T08:39:23.594Z,2.20
2022-08-12T08:40:47.190Z,2.40
2022-08-12T08:42:14.108Z,2.40
2022-08-12T08:43:20.380Z,2.35
2022-08-12T08:44:22.725Z,2.13
2022-08-12T08:45:32.417Z,2.42
2022-08-12T08:46:38.372Z,2.50
2022-08-12T08:47:49.225Z,2.35
2022-08-12T08:48:51.833Z,2.50
2022-08-12T08:50:01.195Z,2.38
2022-08-12T08:51:05.672Z,2.20
2022-08-12T08:52:11.328Z,2.25
2022-08-12T08:53:16.383Z,2.13
2022-08-12T08:54:18.620Z,2.35
2022-08-12T08:55:27.528Z,2.28
2022-08-12T08:56:44.485Z,2.13
2022-08-12T08:57:50.289Z,2.20
2022-08-12T08:58:52.644Z,2.22
2022-08-12T08:59:55.511Z,2.33
2022-08-12T09:00:57.748Z,2.35
2022-08-12T09:02:00.845Z,2.20
2022-08-12T09:03:04.281Z,2.05
2022-08-12T09:05:13.105Z,2.15
2022-08-12T09:06:02.894Z,2.08
2022-08-12T09:07:16.998Z,2.35
2022-08-12T09:08:27.940Z,2.13
2022-08-12T09:09:34.142Z,2.08
2022-08-12T09:11:01.017Z,2.15
2022-08-12T09:12:27.474Z,2.10
2022-08-12T09:14:11.388Z,2.00
2022-08-12T09:14:55.074Z,1.90
2022-08-12T09:15:59.588Z,1.90
2022-08-12T09:17:05.469Z,1.98
2022-08-12T09:18:09.533Z,2.15
2022-08-12T09:19:27.292Z,1.90
2022-08-12T09:20:33.726Z,1.77
2022-08-12T09:23:01.297Z,1.95
2022-08-12T09:24:10.618Z,2.10
2022-08-12T09:25:25.344Z,2.28
2022-08-12T09:26:29.232Z,2.15
2022-08-12T09:28:15.521Z,2.80
2022-08-12T09:28:55.851Z,2.30
2022-08-12T09:30:09.908Z,1.90
2022-08-12T09:32:06.694Z,2.30
2022-08-12T09:33:04.492Z,2.13
2022-08-12T09:34:31.765Z,1.70
2022-08-12T09:35:33.788Z,1.60
2022-08-12T09:37:01.040Z,1.85
2022-08-12T09:38:04.496Z,1.70
2022-08-12T09:40:03.518Z,1.83
2022-08-12T09:40:55.823Z,1.75
2022-08-12T09:42:39.184Z,1.83
2022-08-12T09:44:05.897Z,1.83
2022-08-12T09:46:07.041Z,1.88
2022-08-12T09:46:46.497Z,2.10
2022-08-12T09:47:59.306Z,1.70
2022-08-12T09:49:04.131Z,1.95
2022-08-12T09:50:20.612Z,2.10
2022-08-12T09:51:23.562Z,2.10
2022-08-12T09:52:31.822Z,1.80
2022-08-12T09:54:08.412Z,2.00
2022-08-12T09:56:05.579Z,1.70
2022-08-12T09:57:00.130Z,2.30
2022-08-12T09:58:46.212Z,2.30
2022-08-12T10:00:17.091Z,2.20
2022-08-12T10:00:52.013Z,1.88
2022-08-12T10:02:45.560Z,1.83
2022-08-12T10:03:32.161Z,2.38
2022-08-12T10:04:37.479Z,2.00
2022-08-12T10:06:26.649Z,1.88
2022-08-12T10:07:25.108Z,1.90
2022-08-12T10:08:32.572Z,1.80
2022-08-12T10:09:58.155Z,1.73
2022-08-12T10:11:20.966Z,1.60
2022-08-12T10:13:07.219Z,2.20
2022-08-12T10:14:07.150Z,1.77
2022-08-12T10:16:01.944Z,2.15
2022-08-12T10:16:46.710Z,1.83
2022-08-12T10:17:56.645Z,1.80
2022-08-12T10:19:17.117Z,1.83
2022-08-12T10:20:20.081Z,1.83
2022-08-12T10:21:36.071Z,2.00
2022-08-12T10:22:44.845Z,1.92
2022-08-12T10:23:57.063Z,1.80
2022-08-12T10:25:18.297Z,1.98
2022-08-12T10:26:40.342Z,1.95
2022-08-12T10:28:04.899Z,1.73
2022-08-12T10:30:03.290Z,1.90
2022-08-12T10:30:59.222Z,1.95
2022-08-12T10:32:21.849Z,1.85
2022-08-12T10:33:31.181Z,1.80
2022-08-12T10:34:34.509Z,1.70
2022-08-12T10:35:38.579Z,1.90
2022-08-12T10:36:43.186Z,1.92
2022-08-12T10:38:34.720Z,1.83
2022-08-12T10:40:01.501Z,1.83
2022-08-12T10:40:57.850Z,1.85
2022-08-12T10:42:29.287Z,1.77
2022-08-12T10:43:56.551Z,1.70
2022-08-12T10:45:09.204Z,1.65
2022-08-12T10:46:19.173Z,1.90
2022-08-12T10:47:26.009Z,1.85
2022-08-12T10:49:05.641Z,1.85
2022-08-12T10:50:29.676Z,2.03
2022-08-12T10:52:04.229Z,1.75
2022-08-12T10:53:08.761Z,2.17
2022-08-12T10:54:14.574Z,1.85
2022-08-12T10:55:19.037Z,2.00
2022-08-12T10:56:22.331Z,1.80
2022-08-12T10:58:13.207Z,2.00
2022-08-12T10:58:49.331Z,1.80
2022-08-12T11:00:31.778Z,1.90
2022-08-12T11:03:01.597Z,1.77
2022-08-12T11:04:28.004Z,1.92
2022-08-12T11:04:34.360Z,2.05
2022-08-12T11:07:02.992Z,1.88
2022-08-12T11:07:10.113Z,2.00
2022-08-12T11:08:38.249Z,2.10
2022-08-12T11:09:54.314Z,1.85
2022-08-12T11:11:06.274Z,1.83
2022-08-12T11:12:54.890Z,2.03
2022-08-12T11:13:46.936Z,1.77
2022-08-12T11:14:52.313Z,1.80
2022-08-12T11:16:03.368Z,2.00
2022-08-12T11:17:43.301Z,1.95
2022-08-12T11:18:40.939Z,1.88
2022-08-12T11:19:44.026Z,2.03
2022-08-12T11:20:48.851Z,2.10
2022-08-12T11:21:58.423Z,1.92
2022-08-12T11:23:24.940Z,2.10
2022-08-12T11:24:30.633Z,1.88
2022-08-12T11:25:42.317Z,2.10
2022-08-12T11:26:58.482Z,1.90
2022-08-12T11:28:01.494Z,2.08
2022-08-12T11:29:06.098Z,2.10
2022-08-12T11:30:31.649Z,2.10
2022-08-12T11:31:52.657Z,2.00
2022-08-12T11:33:11.643Z,1.90
2022-08-12T11:34:52.798Z,1.83
2022-08-12T11:35:43.782Z,1.90
2022-08-12T11:36:56.643Z,2.00
2022-08-12T11:38:01.887Z,1.80
2022-08-12T11:39:05.321Z,1.80
2022-08-12T11:41:11.447Z,2.00
2022-08-12T11:42:14.201Z,1.80
2022-08-12T11:43:18.912Z,1.90
2022-08-12T11:44:36.687Z,1.80
2022-08-12T11:45:53.314Z,1.80
2022-08-12T11:46:59.130Z,2.00
2022-08-12T11:48:02.155Z,1.85
2022-08-12T11:49:07.989Z,2.05
2022-08-12T11:50:11.745Z,1.80
2022-08-12T11:51:22.172Z,2.08
2022-08-12T11:52:54.875Z,1.90
2022-08-12T11:53:58.886Z,2.10
2022-08-12T11:55:01.977Z,1.80
2022-08-12T11:56:06.833Z,2.03
2022-08-12T11:58:01.170Z,1.90
2022-08-12T11:59:57.468Z,2.20
2022-08-12T12:02:02.376Z,2.35
2022-08-12T12:02:47.479Z,2.47
2022-08-12T12:03:49.987Z,2.10
2022-08-12T12:04:53.869Z,2.05
2022-08-12T12:05:56.248Z,1.90
2022-08-12T12:07:07.055Z,2.17
2022-08-12T12:08:38.416Z,2.13
2022-08-12T12:09:53.605Z,2.00
2022-08-12T12:10:56.384Z,1.80
2022-08-12T12:12:00.959Z,2.17
2022-08-12T12:13:03.707Z,1.92
2022-08-12T12:14:14.082Z,1.90
2022-08-12T12:15:24.864Z,2.00
2022-08-12T12:16:29.629Z,1.90
2022-08-12T12:17:38.798Z,1.85
2022-08-12T12:18:41.079Z,1.90
2022-08-12T12:19:46.132Z,2.08
2022-08-12T12:20:49.475Z,1.80
2022-08-12T12:21:51.667Z,1.98
2022-08-12T12:22:53.865Z,2.00
2022-08-12T12:24:00.768Z,1.80
2022-08-12T12:25:12.964Z,2.00
2022-08-12T12:26:35.050Z,2.00
2022-08-12T12:28:04.727Z,1.85
2022-08-12T12:30:13.602Z,2.10
2022-08-12T12:30:34.945Z,2.25
2022-08-12T12:32:06.933Z,2.15
2022-08-12T12:32:59.738Z,1.98
2022-08-12T12:34:01.939Z,1.90
2022-08-12T12:35:14.686Z,1.95
2022-08-12T12:36:30.925Z,1.80
2022-08-12T12:38:03.667Z,1.95
2022-08-12T12:38:55.674Z,2.90
2022-08-12T12:39:58.734Z,3.10
2022-08-12T12:41:16.278Z,2.03
2022-08-12T12:42:42.553Z,1.90
2022-08-12T12:44:04.111Z,1.60
2022-08-12T12:45:19.134Z,1.92
2022-08-12T12:46:25.216Z,1.75
2022-08-12T12:47:30.158Z,1.95
2022-08-12T12:48:32.770Z,2.00
2022-08-12T12:49:35.048Z,2.20
2022-08-12T12:50:45.638Z,2.13
2022-08-12T12:52:18.400Z,1.92
2022-08-12T12:54:07.949Z,2.17
2022-08-12T12:55:00.815Z,2.10
2022-08-12T12:56:03.720Z,2.05
2022-08-12T12:57:06.521Z,2.00
2022-08-12T12:58:14.293Z,2.00
2022-08-12T12:59:55.993Z,2.10
2022-08-12T13:00:50.100Z,1.90
2022-08-12T13:01:53.617Z,1.90
2022-08-12T13:02:57.017Z,2.00
2022-08-12T13:04:02.237Z,1.83
2022-08-12T13:05:13.943Z,2.08
2022-08-12T13:06:19.120Z,2.00
2022-08-12T13:07:54.251Z,1.88
2022-08-12T13:08:49.505Z,2.00
2022-08-12T13:09:51.709Z,2.30
2022-08-12T13:10:58.658Z,2.15
2022-08-12T13:12:10.429Z,2.10
2022-08-12T13:14:07.475Z,2.08
2022-08-12T13:14:35.268Z,1.95
2022-08-12T13:15:43.886Z,1.98
2022-08-12T13:16:50.158Z,2.00
2022-08-12T13:18:03.149Z,2.20
2022-08-12T13:19:07.676Z,1.90
2022-08-12T13:20:12.799Z,1.90
2022-08-12T13:21:36.794Z,1.83
2022-08-12T13:22:46.018Z,2.00
2022-08-12T13:23:50.518Z,1.90
2022-08-12T13:24:57.713Z,2.10
2022-08-12T13:26:00.496Z,2.20
2022-08-12T13:27:05.496Z,2.30
2022-08-12T13:28:09.790Z,2.17
2022-08-12T13:29:15.358Z,2.15
2022-08-12T13:30:23.730Z,2.10
2022-08-12T13:31:27.138Z,1.85
2022-08-12T13:32:30.875Z,2.28
2022-08-12T13:34:32.053Z,2.58
2022-08-12T13:35:04.703Z,1.95
2022-08-12T13:36:21.134Z,1.90
2022-08-12T13:37:26.699Z,2.20
2022-08-12T13:38:52.230Z,1.88
2022-08-12T13:39:56.973Z,2.33
2022-08-12T13:40:59.173Z,1.92
2022-08-12T13:42:01.359Z,2.00
2022-08-12T13:43:07.444Z,2.00
2022-08-12T13:44:13.295Z,2.13
2022-08-12T13:45:21.420Z,1.80
2022-08-12T13:46:25.612Z,1.85
2022-08-12T13:47:30.916Z,1.90
2022-08-12T13:48:45.772Z,2.00
2022-08-12T13:49:53.869Z,2.20
2022-08-12T13:51:00.697Z,2.28
2022-08-12T13:52:06.595Z,1.70
2022-08-12T13:53:24.371Z,1.85
2022-08-12T13:54:34.855Z,1.90
2022-08-12T13:55:42.418Z,2.00
2022-08-12T13:56:51.382Z,1.90
2022-08-12T13:57:56.406Z,1.83
2022-08-12T13:59:05.732Z,1.90
2022-08-12T14:00:14.950Z,1.80
2022-08-12T14:01:23.276Z,1.90
2022-08-12T14:02:25.537Z,1.92
2022-08-12T14:03:28.324Z,1.88
2022-08-12T14:04:30.939Z,1.80
2022-08-12T14:05:38.209Z,1.90
2022-08-12T14:06:44.863Z,2.20
2022-08-12T14:08:03.627Z,1.70
2022-08-12T14:09:17.663Z,1.90
2022-08-12T14:10:50.996Z,2.03
2022-08-12T14:11:59.581Z,1.85
2022-08-12T14:13:17.152Z,1.80
2022-08-12T14:14:35.702Z,2.00
2022-08-12T14:15:47.822Z,1.90
2022-08-12T14:16:52.019Z,1.90
2022-08-12T14:17:54.850Z,2.10
2022-08-12T14:18:58.368Z,2.00
2022-08-12T14:20:16.214Z,2.08
2022-08-12T14:21:22.508Z,1.92
2022-08-12T14:22:26.009Z,1.95
2022-08-12T14:24:07.947Z,1.90
2022-08-12T14:24:55.366Z,1.90
2022-08-12T14:25:59.009Z,2.95
2022-08-12T14:27:02.167Z,2.80
2022-08-12T14:28:17.130Z,2.20
2022-08-12T14:29:37.708Z,1.90
2022-08-12T14:31:01.074Z,1.90
2022-08-12T14:32:07.769Z,1.80
2022-08-12T14:33:19.633Z,1.80
2022-08-12T14:34:28.450Z,1.90
2022-08-12T14:35:40.983Z,2.00
2022-08-12T14:36:47.073Z,1.90
2022-08-12T14:37:58.149Z,1.90
2022-08-12T14:39:06.591Z,2.08
2022-08-12T14:40:09.507Z,2.00
2022-08-12T14:41:14.000Z,1.90
2022-08-12T14:42:17.827Z,2.00
2022-08-12T14:43:20.955Z,1.85
2022-08-12T14:44:57.797Z,2.05
2022-08-12T14:45:52.011Z,1.98
2022-08-12T14:46:57.068Z,2.00
2022-08-12T14:48:03.644Z,2.00
2022-08-12T14:49:27.545Z,1.90
2022-08-12T14:50:58.127Z,1.88
2022-08-12T14:52:43.425Z,2.10
2022-08-12T14:55:36.188Z,1.75
2022-08-12T14:56:59.473Z,2.20
2022-08-12T14:57:35.352Z,2.00
2022-08-12T14:59:00.005Z,1.88
2022-08-12T15:00:23.174Z,1.80
2022-08-12T15:01:39.384Z,1.90
2022-08-12T15:02:45.599Z,1.80
2022-08-12T15:03:53.903Z,1.92
2022-08-12T15:05:03.584Z,2.15
2022-08-12T15:06:43.984Z,1.70
2022-08-12T15:07:50.361Z,1.98
2022-08-12T15:09:00.528Z,1.80
2022-08-12T15:10:03.719Z,2.10
2022-08-12T15:11:15.575Z,2.28
2022-08-12T15:12:24.742Z,2.20
2022-08-12T15:13:26.999Z,1.90
2022-08-12T15:14:30.401Z,1.88
2022-08-12T15:15:43.785Z,1.88
2022-08-12T15:16:48.667Z,2.08
2022-08-12T15:17:59.710Z,1.70
2022-08-12T15:19:25.825Z,2.40
2022-08-12T15:20:37.562Z,1.88
2022-08-12T15:22:37.939Z,2.30
2022-08-12T15:23:17.959Z,2.50
2022-08-12T15:24:23.341Z,2.40
2022-08-12T15:25:28.036Z,2.03
2022-08-12T15:26:40.775Z,1.65
2022-08-12T15:28:04.457Z,1.88
2022-08-12T15:29:06.593Z,2.10
2022-08-12T15:30:12.778Z,2.15
2022-08-12T15:31:27.479Z,2.05
2022-08-12T15:32:34.892Z,1.88
2022-08-12T15:33:45.468Z,2.13
2022-08-12T15:34:49.795Z,2.38
2022-08-12T15:35:56.693Z,2.30
2022-08-12T15:36:58.881Z,2.08
2022-08-12T15:38:25.260Z,1.70
2022-08-12T15:39:28.304Z,1.70
2022-08-12T15:40:33.431Z,1.85
2022-08-12T15:41:37.162Z,1.70
2022-08-12T15:42:54.777Z,1.70
2022-08-12T15:44:37.492Z,1.60
2022-08-12T15:45:23.595Z,1.73
2022-08-12T15:46:27.640Z,1.98
2022-08-12T15:47:48.242Z,2.00
2022-08-12T15:48:52.449Z,1.83
2022-08-12T15:50:00.809Z,1.60
2022-08-12T15:51:03.937Z,1.80
2022-08-12T15:52:07.137Z,2.00
2022-08-12T15:53:15.599Z,1.90
2022-08-12T15:54:33.168Z,1.90
2022-08-12T15:55:45.813Z,2.00
2022-08-12T15:56:49.120Z,2.10
2022-08-12T15:57:54.833Z,1.80
2022-08-12T15:59:00.518Z,1.75
2022-08-12T16:00:07.353Z,1.70
2022-08-12T16:01:17.275Z,1.77
2022-08-12T16:02:22.129Z,1.70